Time;durP1;ratioP1;P1;durP2;ratioP2;P2;SDS_P1;SDS_P2;PMS_P1;PMS_P2;Temp;Humidity;BMP_temperature;BMP_pressure;BME280_temperature;BME280_humidity;BME280_pressure;Samples;Min_cycle;Max_cycle;Signal;HPM_P1;HPM_P2
2022/03/06 00:01:17;;;;;;;48.90;26.60;;;;;;;-0.44;77.66;98987.43;105837;1281;22562;-74
2022/03/06 00:03:48;;;;;;;49.20;24.90;;;;;;;-0.44;77.87;98988.17;105659;1281;138389;-74
2022/03/06 00:06:14;;;;;;;52.80;23.70;;;;;;;-0.43;78.03;98981.12;105803;1281;22569;-74
2022/03/06 00:08:41;;;;;;;50.20;24.40;;;;;;;-0.42;77.83;98982.95;105646;1280;138673;-75
2022/03/06 00:11:08;;;;;;;51.00;23.90;;;;;;;-0.42;78.06;98985.58;105791;1280;24288;-75
2022/03/06 00:13:35;;;;;;;55.20;24.40;;;;;;;-0.40;78.28;98982.94;105953;1280;24374;-75
2022/03/06 00:16:02;;;;;;;49.70;24.30;;;;;;;-0.41;77.86;98978.02;105941;1280;137572;-75
2022/03/06 00:18:30;;;;;;;54.40;25.20;;;;;;;-0.43;77.83;98980.41;106038;1281;22569;-75
2022/03/06 00:20:59;;;;;;;52.10;25.30;;;;;;;-0.45;77.75;98979.00;105815;1279;138143;-75
2022/03/06 00:23:28;;;;;;;44.20;22.70;;;;;;;-0.45;77.78;98981.85;105782;1281;23476;-75
2022/03/06 00:25:55;;;;;;;42.40;22.70;;;;;;;-0.44;77.81;98976.38;105808;1281;24283;-75
2022/03/06 00:28:22;;;;;;;41.90;21.90;;;;;;;-0.44;78.04;98976.41;105757;1281;137728;-75
2022/03/06 00:30:48;;;;;;;48.20;23.30;;;;;;;-0.46;77.76;98973.05;105770;1280;22558;-75
2022/03/06 00:33:15;;;;;;;44.40;22.30;;;;;;;-0.49;77.96;98971.02;105817;1280;137795;-75
2022/03/06 00:35:42;;;;;;;50.00;23.80;;;;;;;-0.51;78.13;98973.96;105973;1280;26133;-75
2022/03/06 00:38:08;;;;;;;47.00;24.00;;;;;;;-0.55;78.32;98974.11;106067;1280;22578;-74
2022/03/06 00:40:36;;;;;;;45.10;22.50;;;;;;;-0.55;78.15;98977.73;105744;1281;138206;-74
2022/03/06 00:43:08;;;;;;;47.90;22.50;;;;;;;-0.54;78.09;98976.42;105913;1281;22556;-74
2022/03/06 00:45:34;;;;;;;43.80;22.00;;;;;;;-0.55;78.20;98980.00;105748;1281;138469;-74
2022/03/06 00:48:00;;;;;;;50.80;24.50;;;;;;;-0.55;78.40;98977.20;105971;1281;22565;-74
2022/03/06 00:50:27;;;;;;;45.50;22.60;;;;;;;-0.56;78.29;98979.23;105911;1280;30557;-75
2022/03/06 00:52:53;;;;;;;45.40;23.30;;;;;;;-0.54;78.48;98979.96;105724;1280;137364;-74
2022/03/06 00:55:20;;;;;;;50.70;23.30;;;;;;;-0.56;78.60;98977.80;105991;1280;22545;-74
2022/03/06 00:57:46;;;;;;;42.00;21.10;;;;;;;-0.59;78.55;98978.94;105772;1280;137688;-74
2022/03/06 01:00:13;;;;;;;48.90;24.90;;;;;;;-0.61;78.54;98981.55;106183;1280;22605;-74
2022/03/06 01:02:39;;;;;;;42.30;21.70;;;;;;;-0.62;78.30;98977.91;105954;1281;138850;-75
2022/03/06 01:05:05;;;;;;;40.20;21.80;;;;;;;-0.62;78.22;98976.52;106091;1281;22564;-75
2022/03/06 01:07:32;;;;;;;42.90;21.50;;;;;;;-0.63;78.52;98975.73;105994;1280;22548;-75
2022/03/06 01:09:58;;;;;;;44.80;21.30;;;;;;;-0.63;78.60;98975.13;106125;1280;137742;-75
2022/03/06 01:12:25;;;;;;;43.20;23.20;;;;;;;-0.61;78.76;98977.66;105690;1281;24220;-74
2022/03/06 01:14:51;;;;;;;44.50;22.40;;;;;;;-0.62;78.59;98973.81;105865;1280;137733;-74
2022/03/06 01:17:20;;;;;;;44.10;22.90;;;;;;;-0.64;78.58;98973.98;105903;1280;22552;-75
2022/03/06 01:19:47;;;;;;;50.00;24.10;;;;;;;-0.68;78.49;98973.75;105874;1280;24384;-73
2022/03/06 01:22:16;;;;;;;48.70;23.60;;;;;;;-0.69;78.90;98973.46;105774;1281;138040;-74
2022/03/06 01:24:43;;;;;;;44.70;23.00;;;;;;;-0.67;78.83;98973.59;105887;1281;22563;-74
2022/03/06 01:27:09;;;;;;;50.50;22.50;;;;;;;-0.66;78.92;98969.79;105609;1281;137747;-73
2022/03/06 01:29:35;;;;;;;46.00;23.10;;;;;;;-0.68;78.81;98966.80;105800;1280;25368;-73
2022/03/06 01:32:02;;;;;;;47.80;23.30;;;;;;;-0.68;78.96;98965.50;105936;1280;22691;-73
2022/03/06 01:34:28;;;;;;;43.10;22.70;;;;;;;-0.68;79.08;98965.91;105660;1280;137761;-73
2022/03/06 01:36:54;;;;;;;49.90;24.20;;;;;;;-0.68;79.13;98966.04;105848;1280;24380;-74
2022/03/06 01:39:21;;;;;;;51.60;23.90;;;;;;;-0.68;78.99;98971.75;106002;1280;138371;-73
2022/03/06 01:41:47;;;;;;;45.40;23.10;;;;;;;-0.68;79.05;98970.48;106065;1280;22562;-73
2022/03/06 01:44:14;;;;;;;43.00;21.90;;;;;;;-0.67;79.03;98969.81;105863;1281;24360;-73
2022/03/06 01:46:40;;;;;;;44.10;23.10;;;;;;;-0.68;79.02;98971.20;105979;1281;138738;-74
2022/03/06 01:49:07;;;;;;;44.30;21.70;;;;;;;-0.69;78.92;98971.33;105971;1280;22712;-73
2022/03/06 01:51:33;;;;;;;44.10;21.00;;;;;;;-0.70;79.03;98972.83;106027;1280;137798;-73
2022/03/06 01:54:00;;;;;;;45.60;22.30;;;;;;;-0.71;78.92;98970.50;105951;1280;25392;-73
2022/03/06 01:56:27;;;;;;;49.70;25.00;;;;;;;-0.73;78.99;98967.45;106015;1280;22590;-74
2022/03/06 01:58:55;;;;;;;46.30;23.50;;;;;;;-0.75;79.06;98968.38;106035;1280;138042;-74
2022/03/06 02:01:21;;;;;;;47.40;22.90;;;;;;;-0.74;79.14;98967.45;105996;1280;22602;-74
2022/03/06 02:03:48;;;;;;;42.80;22.80;;;;;;;-0.73;79.31;98968.48;105836;1281;138514;-73
2022/03/06 02:06:20;;;;;;;45.00;22.40;;;;;;;-0.71;79.02;98968.35;105865;1281;24480;-74
2022/03/06 02:08:49;;;;;;;48.60;22.20;;;;;;;-0.70;79.20;98972.71;105638;1281;137889;-75
2022/03/06 02:11:17;;;;;;;40.90;21.20;;;;;;;-0.70;79.13;98973.96;105949;1280;24268;-73
2022/03/06 02:13:44;;;;;;;47.60;22.30;;;;;;;-0.72;79.03;98973.24;105977;1280;24295;-73
2022/03/06 02:16:10;;;;;;;46.40;23.80;;;;;;;-0.73;79.00;98972.10;105964;1280;138040;-73
2022/03/06 02:18:37;;;;;;;44.60;22.40;;;;;;;-0.74;79.15;98969.71;106016;1280;25275;-73
2022/03/06 02:21:07;;;;;;;45.00;22.70;;;;;;;-0.74;79.24;98968.79;105842;1280;138391;-73
2022/03/06 02:23:33;;;;;;;40.40;21.70;;;;;;;-0.72;79.13;98964.55;105989;1281;22581;-73
2022/03/06 02:26:00;;;;;;;45.50;21.70;;;;;;;-0.71;79.12;98965.89;105819;1281;25277;-73
2022/03/06 02:28:26;;;;;;;44.20;22.90;;;;;;;-0.73;79.14;98967.67;105851;1281;137641;-73
2022/03/06 02:30:53;;;;;;;41.90;22.70;;;;;;;-0.74;78.92;98963.64;105831;1280;25516;-74
2022/03/06 02:33:19;;;;;;;48.70;24.00;;;;;;;-0.76;78.98;98960.45;105784;1280;137662;-73
2022/03/06 02:35:45;;;;;;;48.90;22.90;;;;;;;-0.75;79.08;98958.25;105984;1279;22562;-73
2022/03/06 02:38:11;;;;;;;38.70;20.60;;;;;;;-0.74;79.06;98957.19;105766;1280;22987;-73
2022/03/06 02:40:39;;;;;;;47.50;23.00;;;;;;;-0.74;78.79;98953.67;105772;1279;138268;-73
2022/03/06 02:43:07;;;;;;;42.10;22.60;;;;;;;-0.74;78.83;98959.15;105966;1279;24241;-73
2022/03/06 02:45:34;;;;;;;43.60;22.70;;;;;;;-0.78;78.97;98957.75;105855;1281;137877;-73
2022/03/06 02:48:15;;;;;;;45.10;22.50;;;;;;;-0.78;78.98;98955.52;105990;1280;25373;-73
2022/03/06 02:50:43;;;;;;;45.50;22.70;;;;;;;-0.80;79.19;98951.81;105816;1280;137871;-73
2022/03/06 02:53:10;;;;;;;43.70;22.40;;;;;;;-0.81;79.15;98952.95;105869;1280;22554;-73
2022/03/06 02:55:38;;;;;;;44.60;22.80;;;;;;;-0.82;79.00;98950.86;105834;1280;22561;-73
2022/03/06 02:58:19;;;;;;;48.90;22.30;;;;;;;-0.81;79.21;98947.95;105661;1280;139221;-73
2022/03/06 03:00:45;;;;;;;42.30;22.30;;;;;;;-0.79;79.41;98950.98;105723;1280;24440;-73
2022/03/06 03:03:12;;;;;;;53.60;22.80;;;;;;;-0.77;79.33;98953.10;105512;1280;137935;-73
2022/03/06 03:05:39;;;;;;;44.70;22.70;;;;;;;-0.75;79.26;98952.70;105640;1281;24211;-73
2022/03/06 03:08:05;;;;;;;44.70;22.40;;;;;;;-0.74;79.34;98950.83;105807;1281;23969;-72
2022/03/06 03:10:31;;;;;;;51.60;23.20;;;;;;;-0.74;79.24;98949.77;105922;1281;138236;-73
2022/03/06 03:12:58;;;;;;;45.10;24.00;;;;;;;-0.76;78.97;98950.46;106004;1280;22587;-73
2022/03/06 03:15:24;;;;;;;43.20;21.40;;;;;;;-0.77;79.23;98944.37;105886;1280;138704;-73
2022/03/06 03:17:51;;;;;;;39.70;21.10;;;;;;;-0.77;79.18;98949.89;105882;1279;22733;-73
2022/03/06 03:20:18;;;;;;;43.30;21.90;;;;;;;-0.76;79.15;98951.06;105754;1280;23006;-73
2022/03/06 03:22:45;;;;;;;40.30;21.80;;;;;;;-0.76;79.06;98951.36;105788;1281;138343;-73
2022/03/06 03:25:12;;;;;;;44.40;22.50;;;;;;;-0.77;79.30;98955.56;105807;1281;22567;-73
2022/03/06 03:27:38;;;;;;;38.20;20.20;;;;;;;-0.78;78.98;98957.77;105706;1281;138069;-73
2022/03/06 03:30:08;;;;;;;40.30;20.00;;;;;;;-0.80;78.55;98955.66;105639;1280;25419;-73
2022/03/06 03:32:35;;;;;;;40.40;20.90;;;;;;;-0.82;78.40;98956.31;105692;1280;25586;-73
2022/03/06 03:35:02;;;;;;;41.10;20.20;;;;;;;-0.84;78.23;98956.98;105671;1280;137924;-73
2022/03/06 03:37:28;;;;;;;41.30;20.70;;;;;;;-0.86;78.22;98960.73;105716;1280;22569;-73
2022/03/06 03:39:55;;;;;;;34.50;17.70;;;;;;;-0.87;78.33;98953.94;105602;1280;138149;-73
2022/03/06 03:42:21;;;;;;;33.40;17.10;;;;;;;-0.88;78.33;98954.25;105629;1280;22639;-73
2022/03/06 03:44:47;;;;;;;28.80;13.30;;;;;;;-0.93;77.76;98953.12;105471;1281;138042;-73
2022/03/06 03:47:14;;;;;;;23.70;13.20;;;;;;;-1.00;76.33;98953.52;105628;1281;22645;-73
2022/03/06 03:49:40;;;;;;;36.80;16.00;;;;;;;-1.05;76.55;98950.14;105658;1281;25450;-73
2022/03/06 03:52:06;;;;;;;31.50;15.90;;;;;;;-1.09;76.71;98950.33;105659;1280;137680;-73
2022/03/06 03:54:33;;;;;;;31.80;15.30;;;;;;;-1.10;76.70;98955.41;105848;1280;25257;-73
2022/03/06 03:56:59;;;;;;;27.20;15.80;;;;;;;-1.11;76.44;98954.31;105733;1280;137869;-73
2022/03/06 03:59:25;;;;;;;26.90;14.60;;;;;;;-1.12;76.39;98950.63;106007;1280;23773;-73
2022/03/06 04:01:52;;;;;;;22.20;12.60;;;;;;;-1.11;75.91;98956.19;105884;1280;25277;-73
2022/03/06 04:04:18;;;;;;;23.30;12.60;;;;;;;-1.08;75.90;98955.71;105773;1281;138171;-73
2022/03/06 04:06:44;;;;;;;18.90;10.90;;;;;;;-1.03;75.24;98956.98;105929;1281;22610;-73
2022/03/06 04:09:11;;;;;;;20.30;10.60;;;;;;;-1.03;74.67;98956.48;105717;1279;137767;-73
2022/03/06 04:11:37;;;;;;;16.20;8.70;;;;;;;-1.03;74.30;98956.27;105765;1281;25508;-73
2022/03/06 04:14:03;;;;;;;18.60;9.00;;;;;;;-1.03;73.47;98957.06;105996;1280;22593;-72
2022/03/06 04:16:29;;;;;;;13.70;8.00;;;;;;;-1.06;73.53;98958.75;105916;1280;137549;-72
2022/03/06 04:18:56;;;;;;;17.40;8.50;;;;;;;-1.06;73.16;98957.31;105795;1280;23560;-72
2022/03/06 04:21:22;;;;;;;11.90;7.30;;;;;;;-1.05;72.41;98959.73;105784;1280;138661;-72
2022/03/06 04:23:48;;;;;;;18.00;8.90;;;;;;;-1.06;72.64;98957.69;105851;1280;22574;-72
2022/03/06 04:26:15;;;;;;;16.60;8.60;;;;;;;-1.08;72.53;98957.17;105766;1280;22561;-72
2022/03/06 04:28:41;;;;;;;17.50;9.10;;;;;;;-1.09;72.48;98959.58;105702;1281;137540;-72
2022/03/06 04:31:07;;;;;;;19.20;8.30;;;;;;;-1.10;72.53;98964.48;105868;1281;23628;-72
2022/03/06 04:33:33;;;;;;;14.30;8.30;;;;;;;-1.11;72.86;98965.27;105795;1280;137920;-72
2022/03/06 04:36:00;;;;;;;19.00;9.60;;;;;;;-1.12;72.67;98963.47;105940;1280;23922;-72
2022/03/06 04:38:26;;;;;;;21.50;11.10;;;;;;;-1.14;72.41;98964.39;105860;1280;24259;-72
2022/03/06 04:40:52;;;;;;;19.20;9.20;;;;;;;-1.17;72.24;98965.01;105634;1280;138259;-72
2022/03/06 04:43:18;;;;;;;17.30;8.90;;;;;;;-1.19;72.07;98972.50;105868;1280;25745;-72
2022/03/06 04:45:45;;;;;;;17.20;9.20;;;;;;;-1.21;71.48;98967.45;105786;1281;137858;-72
2022/03/06 04:48:11;;;;;;;14.70;9.00;;;;;;;-1.23;71.19;98974.14;105976;1281;22749;-72
2022/03/06 04:50:37;;;;;;;16.10;8.10;;;;;;;-1.24;71.22;98972.50;106049;1281;25401;-72
2022/03/06 04:53:03;;;;;;;19.70;11.30;;;;;;;-1.26;71.19;98969.35;105764;1280;137383;-73
2022/03/06 04:55:29;;;;;;;19.70;10.50;;;;;;;-1.26;71.50;98971.26;105835;1280;22699;-73
2022/03/06 04:57:56;;;;;;;16.20;9.20;;;;;;;-1.23;71.65;98972.25;105897;1280;138494;-73
2022/03/06 05:00:22;;;;;;;19.60;9.80;;;;;;;-1.19;71.72;98971.34;105885;1280;22769;-73
2022/03/06 05:02:48;;;;;;;16.50;9.30;;;;;;;-1.17;71.60;98971.04;105844;1280;138132;-73
2022/03/06 05:05:15;;;;;;;20.50;10.50;;;;;;;-1.14;71.43;98976.35;105949;1281;23431;-73
2022/03/06 05:07:41;;;;;;;16.50;8.80;;;;;;;-1.13;71.49;98976.78;105957;1281;22710;-73
2022/03/06 05:10:09;;;;;;;21.10;9.70;;;;;;;-1.14;71.51;98975.58;105672;1281;139845;-73
2022/03/06 05:12:37;;;;;;;16.30;8.90;;;;;;;-1.15;71.32;98981.59;105918;1281;25272;-74
2022/03/06 05:15:05;;;;;;;19.70;10.10;;;;;;;-1.16;71.54;98983.59;105610;1281;137691;-73
2022/03/06 05:17:32;;;;;;;18.20;10.40;;;;;;;-1.16;71.29;98983.45;105872;1280;22559;-73
2022/03/06 05:19:58;;;;;;;18.90;9.90;;;;;;;-1.14;71.39;98985.77;105932;1280;22553;-73
2022/03/06 05:22:24;;;;;;;16.80;9.70;;;;;;;-1.15;71.44;98983.52;105719;1280;138045;-73
2022/03/06 05:24:50;;;;;;;21.00;11.00;;;;;;;-1.16;71.55;98985.57;106072;1280;23197;-74
2022/03/06 05:27:17;;;;;;;19.20;10.60;;;;;;;-1.16;71.79;98988.48;105771;1281;138557;-73
2022/03/06 05:29:43;;;;;;;17.20;8.40;;;;;;;-1.17;71.94;98988.91;105831;1281;25348;-73
2022/03/06 05:32:09;;;;;;;21.80;11.10;;;;;;;-1.19;71.80;98983.60;105841;1280;24377;-74
2022/03/06 05:34:36;;;;;;;19.50;10.10;;;;;;;-1.20;71.79;98980.98;105650;1280;138879;-73
2022/03/06 05:37:03;;;;;;;18.20;10.20;;;;;;;-1.19;71.79;98979.67;105793;1280;22632;-72
2022/03/06 05:39:29;;;;;;;17.70;9.50;;;;;;;-1.17;71.66;98978.73;106048;1279;137844;-72
2022/03/06 05:41:55;;;;;;;19.90;9.00;;;;;;;-1.15;71.87;98976.05;105977;1280;22638;-73
2022/03/06 05:44:21;;;;;;;18.40;9.60;;;;;;;-1.12;71.64;98975.94;105855;1280;22558;-73
2022/03/06 05:46:48;;;;;;;15.80;8.80;;;;;;;-1.10;71.17;98971.79;105836;1281;137836;-73
2022/03/06 05:49:14;;;;;;;20.20;10.60;;;;;;;-1.10;71.13;98971.70;105811;1281;22730;-72
2022/03/06 05:51:42;;;;;;;21.30;11.50;;;;;;;-1.09;71.51;98971.61;105796;1281;137807;-73
2022/03/06 05:54:08;;;;;;;20.50;11.10;;;;;;;-1.09;71.35;98972.42;105839;1280;24320;-72
2022/03/06 05:56:35;;;;;;;21.80;11.90;;;;;;;-1.09;71.97;98972.44;106063;1280;25423;-73
2022/03/06 05:59:03;;;;;;;20.70;10.40;;;;;;;-1.09;71.78;98970.30;105987;1280;137552;-73
2022/03/06 06:01:30;;;;;;;20.20;10.10;;;;;;;-1.10;71.67;98968.59;106210;1280;22705;-72
2022/03/06 06:03:58;;;;;;;19.40;10.30;;;;;;;-1.10;71.93;98971.60;106016;1280;138692;-73
2022/03/06 06:06:26;;;;;;;20.30;10.10;;;;;;;-1.08;72.36;98971.11;105946;1280;22594;-73
2022/03/06 06:08:54;;;;;;;25.80;11.50;;;;;;;-1.07;72.31;98970.30;105730;1281;138047;-73
2022/03/06 06:11:21;;;;;;;19.60;10.60;;;;;;;-1.05;72.17;98974.18;105819;1281;22565;-73
2022/03/06 06:13:48;;;;;;;20.30;10.70;;;;;;;-1.03;72.24;98971.30;106020;1281;22576;-73
2022/03/06 06:16:14;;;;;;;17.60;9.70;;;;;;;-1.00;71.71;98973.13;105911;1279;138262;-74
2022/03/06 06:18:40;;;;;;;20.10;11.60;;;;;;;-0.98;71.55;98970.36;106059;1280;24137;-73
2022/03/06 06:21:07;;;;;;;19.50;10.00;;;;;;;-0.95;71.61;98968.27;105774;1280;138434;-73
2022/03/06 06:23:34;;;;;;;21.90;11.00;;;;;;;-0.93;71.57;98971.49;105842;1280;25392;-73
2022/03/06 06:26:00;;;;;;;20.70;8.80;;;;;;;-0.91;70.92;98974.68;105681;1280;22707;-73
2022/03/06 06:28:26;;;;;;;20.20;10.70;;;;;;;-0.91;71.15;98972.15;105993;1281;137551;-73
2022/03/06 06:30:52;;;;;;;17.70;9.70;;;;;;;-0.89;70.98;98973.55;105844;1281;22736;-74
2022/03/06 06:33:34;;;;;;;14.20;8.80;;;;;;;-0.88;71.21;98974.52;105759;1280;137678;-74
2022/03/06 06:36:02;;;;;;;12.20;6.80;;;;;;;-0.87;70.13;98976.23;105892;1280;25446;-74
2022/03/06 06:38:28;;;;;;;12.80;7.00;;;;;;;-0.88;69.01;98975.96;105849;1280;25352;-74
2022/03/06 06:40:55;;;;;;;9.20;5.50;;;;;;;-0.89;68.85;98975.69;105773;1280;137955;-74
2022/03/06 06:43:21;;;;;;;9.70;5.30;;;;;;;-0.90;68.40;98977.55;105751;1280;24249;-74
2022/03/06 06:45:48;;;;;;;8.30;5.20;;;;;;;-0.91;68.18;98980.02;105968;1280;137879;-74
2022/03/06 06:48:15;;;;;;;11.30;6.90;;;;;;;-0.91;68.71;98981.30;105777;1281;25338;-74
2022/03/06 06:50:41;;;;;;;8.80;5.00;;;;;;;-0.90;68.19;98983.27;105834;1281;25511;-75
2022/03/06 06:53:07;;;;;;;8.50;4.70;;;;;;;-0.90;67.32;98982.98;105699;1281;137498;-74
2022/03/06 06:55:35;;;;;;;10.30;5.80;;;;;;;-0.92;66.80;98985.48;105807;1280;22650;-73
2022/03/06 06:58:04;;;;;;;10.20;5.90;;;;;;;-0.94;67.00;98986.20;105696;1280;137613;-73
2022/03/06 07:00:31;;;;;;;9.80;5.10;;;;;;;-0.94;66.75;98989.23;105747;1280;24334;-73
2022/03/06 07:02:58;;;;;;;8.50;5.00;;;;;;;-0.94;66.68;98992.31;105795;1280;137619;-73
2022/03/06 07:05:24;;;;;;;10.40;5.80;;;;;;;-0.95;66.44;98991.86;105943;1280;22694;-73
2022/03/06 07:07:50;;;;;;;11.10;5.70;;;;;;;-0.96;66.64;98997.79;105877;1281;25447;-73
2022/03/06 07:10:17;;;;;;;9.80;5.70;;;;;;;-0.94;66.93;98996.56;105790;1281;137523;-73
2022/03/06 07:12:45;;;;;;;11.10;6.20;;;;;;;-0.93;66.79;98996.82;105878;1281;22666;-73
2022/03/06 07:15:13;;;;;;;9.60;5.80;;;;;;;-0.92;66.85;98997.98;105938;1281;137706;-73
2022/03/06 07:17:41;;;;;;;12.90;6.90;;;;;;;-0.91;66.93;98998.38;105862;1280;25522;-73
2022/03/06 07:20:09;;;;;;;14.10;7.10;;;;;;;-0.91;67.01;98998.02;105906;1280;25418;-73
2022/03/06 07:22:36;;;;;;;12.20;6.60;;;;;;;-0.90;66.74;98998.05;106046;1280;138017;-73
2022/03/06 07:25:03;;;;;;;12.20;6.70;;;;;;;-0.89;66.88;98993.67;105913;1280;25335;-73
2022/03/06 07:27:29;;;;;;;10.80;6.50;;;;;;;-0.87;66.79;99000.09;105899;1280;138294;-73
2022/03/06 07:29:56;;;;;;;13.90;6.80;;;;;;;-0.85;66.49;99000.31;105841;1281;25102;-73
2022/03/06 07:32:23;;;;;;;10.90;6.10;;;;;;;-0.84;66.24;98999.08;105858;1281;22723;-73
2022/03/06 07:34:50;;;;;;;13.00;6.60;;;;;;;-0.85;66.19;98998.44;105832;1281;137777;-73
2022/03/06 07:37:16;;;;;;;16.00;6.40;;;;;;;-0.84;65.97;98999.39;105965;1280;22615;-73
2022/03/06 07:39:42;;;;;;;13.20;7.80;;;;;;;-0.81;66.11;99000.38;105815;1280;138304;-73
2022/03/06 07:42:09;;;;;;;13.20;6.50;;;;;;;-0.78;65.90;99000.27;106021;1280;23129;-73
2022/03/06 07:44:35;;;;;;;11.30;6.20;;;;;;;-0.77;65.80;98997.67;105865;1280;23325;-73
2022/03/06 07:47:02;;;;;;;10.40;5.80;;;;;;;-0.74;65.73;98998.43;105999;1280;137949;-73
2022/03/06 07:49:28;;;;;;;11.50;5.80;;;;;;;-0.71;65.25;98994.54;105918;1281;25324;-73
2022/03/06 07:51:54;;;;;;;11.80;6.50;;;;;;;-0.69;64.77;98991.81;105933;1281;137860;-73
2022/03/06 07:54:21;;;;;;;8.30;5.40;;;;;;;-0.68;64.21;98990.08;105634;1281;25427;-73
2022/03/06 07:56:48;;;;;;;9.90;5.70;;;;;;;-0.67;64.44;98993.55;105827;1280;22660;-73
2022/03/06 07:59:15;;;;;;;9.30;5.40;;;;;;;-0.64;64.38;98993.61;105913;1280;138079;-73
2022/03/06 08:01:41;;;;;;;11.40;5.80;;;;;;;-0.60;64.36;98993.85;105888;1280;25276;-73
2022/03/06 08:04:07;;;;;;;9.00;4.60;;;;;;;-0.56;64.06;98988.86;105924;1280;138095;-73
2022/03/06 08:06:34;;;;;;;7.50;4.40;;;;;;;-0.52;63.88;98986.64;106014;1280;22732;-73
2022/03/06 08:09:02;;;;;;;6.30;3.60;;;;;;;-0.48;63.00;98983.95;105664;1281;137563;-73
2022/03/06 08:11:29;;;;;;;8.30;4.00;;;;;;;-0.45;62.46;98978.84;105836;1279;22563;-73
2022/03/06 08:13:55;;;;;;;6.30;3.70;;;;;;;-0.44;61.92;98978.85;105745;1281;22597;-73
2022/03/06 08:16:21;;;;;;;6.00;3.70;;;;;;;-0.41;61.96;98978.36;105737;1280;137454;-73
2022/03/06 08:18:48;;;;;;;4.30;3.00;;;;;;;-0.37;61.68;98984.21;105868;1280;22591;-73
2022/03/06 08:21:14;;;;;;;5.00;3.20;;;;;;;-0.35;61.35;98981.15;106004;1280;137626;-74
2022/03/06 08:23:40;;;;;;;6.50;3.30;;;;;;;-0.35;61.00;98979.57;105905;1280;24438;-74
2022/03/06 08:26:06;;;;;;;5.80;3.20;;;;;;;-0.32;61.20;98978.16;105764;1280;24260;-74
2022/03/06 08:28:32;;;;;;;5.30;3.30;;;;;;;-0.29;60.85;98975.38;105831;1280;137363;-74
2022/03/06 08:30:59;;;;;;;4.40;2.90;;;;;;;-0.29;60.66;98973.88;105455;1282;22548;-74
2022/03/06 08:33:25;;;;;;;5.00;3.00;;;;;;;-0.30;60.11;98971.47;105623;1281;137736;-74
2022/03/06 08:35:52;;;;;;;5.00;2.70;;;;;;;-0.29;60.18;98972.50;105834;1281;24372;-74
2022/03/06 08:38:33;;;;;;;6.20;3.30;;;;;;;-0.28;59.82;98970.73;105776;1280;25393;-74
2022/03/06 08:41:00;;;;;;;4.70;3.00;;;;;;;-0.28;59.91;98972.30;105886;1280;137430;-74
2022/03/06 08:43:26;;;;;;;5.40;3.10;;;;;;;-0.26;59.82;98970.17;105773;1280;24381;-74
2022/03/06 08:45:53;;;;;;;5.20;3.30;;;;;;;-0.26;59.66;98974.65;105809;1280;137456;-74
2022/03/06 08:48:21;;;;;;;7.10;3.10;;;;;;;-0.25;60.40;98976.17;106109;1280;22734;-74
2022/03/06 08:51:03;;;;;;;6.70;3.20;;;;;;;-0.22;60.23;98978.83;105883;1281;137584;-74
2022/03/06 08:53:31;;;;;;;4.70;2.90;;;;;;;-0.18;60.11;98974.23;105922;1281;25376;-74
2022/03/06 08:55:58;;;;;;;6.40;3.00;;;;;;;-0.17;60.00;98974.75;105891;1281;24292;-74
2022/03/06 08:58:25;;;;;;;4.90;3.60;;;;;;;-0.14;60.05;98974.89;105806;1280;137602;-74
2022/03/06 09:00:52;;;;;;;7.10;3.60;;;;;;;-0.11;59.88;98976.16;105958;1280;23765;-74
2022/03/06 09:03:18;;;;;;;6.80;4.30;;;;;;;-0.10;59.72;98975.08;105769;1280;137667;-74
2022/03/06 09:05:44;;;;;;;6.20;3.70;;;;;;;-0.09;59.57;98974.80;105852;1281;22605;-74
2022/03/06 09:08:11;;;;;;;6.60;3.70;;;;;;;-0.06;59.85;98974.35;105888;1280;22581;-74
2022/03/06 09:10:39;;;;;;;5.30;3.20;;;;;;;-0.02;59.40;98974.07;105591;1281;137337;-73
2022/03/06 09:13:07;;;;;;;6.40;4.00;;;;;;;0.00;59.33;98970.65;105834;1281;22516;-73
2022/03/06 09:15:35;;;;;;;7.00;4.20;;;;;;;0.01;58.68;98968.95;105285;1282;404104;-73
2022/03/06 09:18:03;;;;;;;5.60;3.30;;;;;;;0.04;58.99;98968.14;105720;1281;24416;-73
2022/03/06 09:20:29;;;;;;;8.40;4.40;;;;;;;0.05;58.50;98965.31;105897;1280;31469;-73
2022/03/06 09:22:56;;;;;;;5.40;3.00;;;;;;;0.07;58.64;98960.62;106060;1281;137175;-73
2022/03/06 09:25:22;;;;;;;6.00;3.70;;;;;;;0.08;58.55;98961.94;106043;1280;25389;-73
2022/03/06 09:27:49;;;;;;;6.40;4.10;;;;;;;0.09;58.74;98966.64;105762;1280;137599;-73
2022/03/06 09:30:16;;;;;;;5.60;3.40;;;;;;;0.12;58.42;98968.88;105943;1282;22561;-73
2022/03/06 09:32:42;;;;;;;5.50;2.70;;;;;;;0.13;58.27;98965.67;105847;1281;24336;-72
2022/03/06 09:35:10;;;;;;;6.40;3.10;;;;;;;0.15;58.13;98967.09;106062;1281;138117;-73
2022/03/06 09:37:36;;;;;;;7.70;3.70;;;;;;;0.16;58.32;98965.30;106052;1281;25393;-73
2022/03/06 09:40:04;;;;;;;7.30;3.70;;;;;;;0.19;58.35;98961.90;105783;1280;137209;-73
2022/03/06 09:42:31;;;;;;;6.40;4.00;;;;;;;0.23;58.35;98963.61;106045;1280;23955;-73
2022/03/06 09:45:02;;;;;;;6.30;3.40;;;;;;;0.24;58.30;98964.01;106127;1280;23351;-73
2022/03/06 09:47:28;;;;;;;7.20;3.60;;;;;;;0.24;58.07;98963.31;105877;1280;138131;-73
2022/03/06 09:49:55;;;;;;;7.10;3.50;;;;;;;0.29;58.62;98967.59;106085;1280;24387;-73
2022/03/06 09:52:21;;;;;;;6.30;3.70;;;;;;;0.34;58.20;98966.11;105998;1281;137227;-73
2022/03/06 09:54:48;;;;;;;8.30;4.60;;;;;;;0.36;57.73;98963.88;106046;1281;25309;-73
2022/03/06 09:57:20;;;;;;;7.70;4.50;;;;;;;0.38;57.33;98962.95;105974;1281;137795;-73
2022/03/06 09:59:47;;;;;;;9.10;4.50;;;;;;;0.38;57.32;98959.57;106289;1280;24234;-74
2022/03/06 10:02:18;;;;;;;7.10;4.40;;;;;;;0.38;57.18;98963.34;106194;1280;22587;-74
2022/03/06 10:04:50;;;;;;;8.20;4.40;;;;;;;0.37;56.75;98966.99;106165;1280;137330;-74
2022/03/06 10:07:21;;;;;;;8.80;4.00;;;;;;;0.38;56.50;98966.76;106332;1280;22671;-73
2022/03/06 10:09:50;;;;;;;7.00;3.60;;;;;;;0.37;56.42;98966.83;106203;1280;137424;-73
2022/03/06 10:12:31;;;;;;;7.30;3.80;;;;;;;0.37;56.85;98965.05;105722;1281;25269;-73
2022/03/06 10:15:02;;;;;;;6.20;3.70;;;;;;;0.40;57.30;98962.45;105957;1281;22608;-73
2022/03/06 10:17:31;;;;;;;6.50;3.80;;;;;;;0.43;56.89;98958.14;106094;1281;137236;-76
2022/03/06 10:19:58;;;;;;;6.10;3.70;;;;;;;0.47;57.09;98959.33;106191;1280;22586;-74
2022/03/06 10:22:36;;;;;;;5.70;3.60;;;;;;;0.51;57.08;98964.08;106170;1280;137268;-74
2022/03/06 10:25:08;;;;;;;7.30;4.10;;;;;;;0.54;57.06;98964.65;106286;1280;24268;-74
2022/03/06 10:27:57;;;;;;;6.20;4.10;;;;;;;0.55;57.23;98961.27;106006;1280;137869;-74
2022/03/06 10:30:42;;;;;;;7.50;4.20;;;;;;;0.58;56.54;98957.08;106171;1280;22801;-74
2022/03/06 10:33:17;;;;;;;7.10;3.10;;;;;;;0.56;56.44;98955.27;106039;1281;22707;-74
2022/03/06 10:35:46;;;;;;;6.30;3.80;;;;;;;0.56;56.19;98953.19;106653;1281;137552;-74
2022/03/06 10:38:27;;;;;;;6.60;3.60;;;;;;;0.55;56.87;98956.51;106387;1281;25384;-74
2022/03/06 10:40:56;;;;;;;6.70;3.80;;;;;;;0.55;56.41;98955.53;105993;1280;137779;-74
2022/03/06 10:43:32;;;;;;;6.60;3.80;;;;;;;0.54;56.72;98954.24;106593;1281;24235;-74
2022/03/06 10:46:16;;;;;;;7.10;4.30;;;;;;;0.54;56.72;98949.45;106200;1280;137482;-74
2022/03/06 10:48:53;;;;;;;5.30;3.30;;;;;;;0.57;56.61;98952.32;106270;1280;22585;-74
2022/03/06 10:51:20;;;;;;;6.00;3.40;;;;;;;0.63;56.97;98945.81;106261;1280;137429;-74
2022/03/06 10:53:54;;;;;;;7.80;4.50;;;;;;;0.68;56.48;98942.56;106478;1280;25314;-74
2022/03/06 10:56:21;;;;;;;7.50;4.40;;;;;;;0.69;56.12;98941.18;106405;1280;24323;-74
2022/03/06 10:58:48;;;;;;;7.80;4.10;;;;;;;0.70;55.71;98934.52;106292;1281;137462;-74
2022/03/06 11:01:15;;;;;;;6.70;3.80;;;;;;;0.72;56.24;98938.17;105908;1281;23934;-74
2022/03/06 11:03:42;;;;;;;5.90;4.00;;;;;;;0.74;56.18;98930.96;105893;1280;137671;-74
2022/03/06 11:06:10;;;;;;;8.20;4.30;;;;;;;0.79;56.24;98929.58;105876;1280;24227;-74
2022/03/06 11:08:38;;;;;;;6.80;4.30;;;;;;;0.86;56.81;98923.77;105948;1281;25267;-74
2022/03/06 11:11:09;;;;;;;7.90;4.20;;;;;;;0.91;56.31;98916.91;105826;1280;137558;-75
2022/03/06 11:13:36;;;;;;;5.30;3.40;;;;;;;0.99;55.76;98915.15;105905;1281;22578;-75
2022/03/06 11:16:03;;;;;;;8.70;4.10;;;;;;;1.07;56.04;98913.72;105762;1281;137401;-75